createdAt,value
2022-09-10T00:01:45.676Z,100612.86
2022-09-10T00:04:17.375Z,100608.21
2022-09-10T00:06:45.979Z,100606.66
2022-09-10T00:09:15.777Z,100608.77
2022-09-10T00:11:47.242Z,100605.06
2022-09-10T00:14:21.797Z,100606.96
2022-09-10T00:16:52.438Z,100613.79
2022-09-10T00:19:22.593Z,100614.69
2022-09-10T00:21:51.055Z,100615.16
2022-09-10T00:24:19.573Z,100611.18
2022-09-10T00:26:47.966Z,100617.20
2022-09-10T00:29:18.589Z,100621.05
2022-09-10T00:31:49.060Z,100621.63
2022-09-10T00:34:17.470Z,100616.41
2022-09-10T00:36:48.207Z,100616.02
2022-09-10T00:39:20.897Z,100618.46
2022-09-10T00:41:49.430Z,100618.55
2022-09-10T00:44:39.213Z,100613.43
2022-09-10T00:47:20.922Z,100613.16
2022-09-10T00:49:55.380Z,100614.43
2022-09-10T00:52:25.976Z,100609.35
2022-09-10T00:54:56.366Z,100614.80
2022-09-10T00:57:29.373Z,100613.70
2022-09-10T01:00:08.320Z,100614.09
2022-09-10T01:02:36.857Z,100613.55
2022-09-10T01:05:09.340Z,100616.95
2022-09-10T01:07:39.862Z,100623.95
2022-09-10T01:10:31.075Z,100628.61
2022-09-10T01:13:15.957Z,100632.55
2022-09-10T01:16:11.662Z,100631.09
2022-09-10T01:19:04.274Z,100632.38
2022-09-10T01:21:57.617Z,100635.60
2022-09-10T01:24:30.935Z,100635.00
2022-09-10T01:27:09.645Z,100631.08
2022-09-10T01:30:05.158Z,100628.77
2022-09-10T01:32:57.103Z,100630.71
2022-09-10T01:35:46.908Z,100627.39
2022-09-10T01:38:38.992Z,100631.30
2022-09-10T01:41:09.154Z,100627.30
2022-09-10T01:43:43.702Z,100625.38
2022-09-10T01:46:46.622Z,100624.30
2022-09-10T01:49:38.506Z,100618.41
2022-09-10T01:52:37.172Z,100616.78
2022-09-10T01:55:45.847Z,100616.36
2022-09-10T01:58:21.713Z,100616.20
2022-09-10T02:01:24.199Z,100611.63
2022-09-10T02:04:01.532Z,100603.86
2022-09-10T02:06:36.208Z,100606.62
2022-09-10T02:09:07.927Z,100607.20
2022-09-10T02:11:48.221Z,100598.16
2022-09-10T02:14:30.468Z,100601.59
2022-09-10T02:17:31.391Z,100602.47
2022-09-10T02:20:06.421Z,100599.52
2022-09-10T02:22:37.249Z,100598.14
2022-09-10T02:25:11.522Z,100597.14
2022-09-10T02:27:45.724Z,100595.04
2022-09-10T02:30:14.238Z,100597.33
2022-09-10T02:32:44.482Z,100599.03
2022-09-10T02:35:17.874Z,100599.53
2022-09-10T02:37:52.334Z,100596.41
2022-09-10T02:40:22.556Z,100590.39
2022-09-10T02:42:52.578Z,100591.11
2022-09-10T02:45:26.615Z,100591.17
2022-09-10T02:47:56.683Z,100597.77
2022-09-10T02:50:27.509Z,100600.27
2022-09-10T02:52:55.994Z,100606.95
2022-09-10T02:55:27.433Z,100614.09
2022-09-10T02:57:57.987Z,100618.33
2022-09-10T03:00:26.416Z,100622.89
2022-09-10T03:03:00.919Z,100632.01
2022-09-10T03:05:34.536Z,100637.30
2022-09-10T03:08:03.328Z,100636.42
2022-09-10T03:10:33.836Z,100634.80
2022-09-10T03:13:02.288Z,100630.12
2022-09-10T03:15:32.668Z,100629.58
2022-09-10T03:18:01.075Z,100627.16
2022-09-10T03:20:29.619Z,100624.46
2022-09-10T03:22:57.982Z,100619.69
2022-09-10T03:25:26.414Z,100622.30
2022-09-10T03:28:01.695Z,100617.65
2022-09-10T03:30:30.143Z,100616.54
2022-09-10T03:33:03.891Z,100616.61
2022-09-10T03:35:33.463Z,100617.79
2022-09-10T03:38:03.857Z,100619.20
2022-09-10T03:40:34.894Z,100623.15
2022-09-10T03:43:03.446Z,100628.55
2022-09-10T03:45:34.254Z,100623.60
2022-09-10T03:48:04.650Z,100624.77
2022-09-10T03:50:36.930Z,100622.80
2022-09-10T03:53:05.396Z,100617.77
2022-09-10T03:55:35.996Z,100613.33
2022-09-10T03:58:06.810Z,100619.48
2022-09-10T04:00:35.817Z,100617.61
2022-09-10T04:03:05.648Z,100620.73
2022-09-10T04:05:40.867Z,100625.52
2022-09-10T04:08:11.295Z,100623.94
2022-09-10T04:10:42.097Z,100622.84
2022-09-10T04:13:11.825Z,100623.09
2022-09-10T04:15:43.445Z,100619.39
2022-09-10T04:18:12.176Z,100624.05
2022-09-10T04:20:40.855Z,100619.90
2022-09-10T04:23:11.965Z,100616.81
2022-09-10T04:25:42.228Z,100614.75
2022-09-10T04:28:11.738Z,100613.59
2022-09-10T04:30:43.095Z,100614.06
2022-09-10T04:33:12.126Z,100611.60
2022-09-10T04:35:43.728Z,100612.44
2022-09-10T04:38:13.748Z,100603.98
2022-09-10T04:40:44.840Z,100600.96
2022-09-10T04:43:15.541Z,100601.80
2022-09-10T04:45:44.470Z,100602.09
2022-09-10T04:48:13.620Z,100601.70
2022-09-10T04:50:59.331Z,100606.98
2022-09-10T04:53:37.947Z,100605.95
2022-09-10T04:56:07.711Z,100604.96
2022-09-10T04:58:39.433Z,100602.14
2022-09-10T05:01:08.853Z,100600.83
2022-09-10T05:03:37.835Z,100597.63
2022-09-10T05:06:08.357Z,100597.88
2022-09-10T05:08:37.113Z,100600.05
2022-09-10T05:11:06.697Z,100598.30
2022-09-10T05:13:35.476Z,100598.95
2022-09-10T05:16:04.996Z,100599.49
2022-09-10T05:18:35.222Z,100597.63
2022-09-10T05:21:05.574Z,100596.34
2022-09-10T05:23:35.538Z,100592.46
2022-09-10T05:26:03.977Z,100587.42
2022-09-10T05:28:32.447Z,100580.97
2022-09-10T05:31:00.981Z,100584.30
2022-09-10T05:33:31.261Z,100584.20
2022-09-10T05:36:01.219Z,100583.27
2022-09-10T05:38:31.735Z,100579.73
2022-09-10T05:41:01.438Z,100578.84
2022-09-10T05:43:30.198Z,100577.23
2022-09-10T05:45:59.379Z,100581.07
2022-09-10T05:48:28.069Z,100585.73
2022-09-10T05:50:57.724Z,100583.92
2022-09-10T05:53:26.087Z,100583.34
2022-09-10T05:55:55.123Z,100587.47
2022-09-10T05:58:24.465Z,100588.61
2022-09-10T06:00:58.468Z,100584.27
2022-09-10T06:03:26.734Z,100586.91
2022-09-10T06:05:59.423Z,100581.91
2022-09-10T06:08:32.265Z,100580.04
2022-09-10T06:11:06.262Z,100576.39
2022-09-10T06:13:42.594Z,100577.38
2022-09-10T06:16:12.102Z,100578.17
2022-09-10T06:18:42.857Z,100581.95
2022-09-10T06:21:18.892Z,100576.58
2022-09-10T06:23:54.636Z,100579.55
2022-09-10T06:26:25.812Z,100574.23
2022-09-10T06:28:57.216Z,100572.37
2022-09-10T06:31:27.977Z,100573.23
2022-09-10T06:33:57.491Z,100575.10
2022-09-10T06:36:31.735Z,100574.39
2022-09-10T06:39:03.632Z,100569.60
2022-09-10T06:41:41.087Z,100570.02
2022-09-10T06:44:14.454Z,100569.29
2022-09-10T06:49:36.899Z,100563.24
2022-09-10T06:52:06.614Z,100563.67
2022-09-10T06:54:36.187Z,100567.36
2022-09-10T06:57:20.415Z,100570.21
2022-09-10T06:59:48.818Z,100570.95
2022-09-10T07:02:17.951Z,100574.56
2022-09-10T07:04:47.444Z,100573.23
2022-09-10T07:07:16.024Z,100571.03
2022-09-10T07:09:45.798Z,100575.20
2022-09-10T07:12:17.740Z,100575.09
2022-09-10T07:14:47.334Z,100577.95
2022-09-10T07:17:15.886Z,100582.35
2022-09-10T07:19:44.786Z,100586.77
2022-09-10T07:22:38.202Z,100583.90
2022-09-10T07:25:10.441Z,100583.82
2022-09-10T07:28:01.615Z,100582.98
2022-09-10T07:30:36.017Z,100579.65
2022-09-10T07:33:04.720Z,100581.90
2022-09-10T07:35:38.321Z,100582.02
2022-09-10T07:38:17.332Z,100583.27
2022-09-10T07:40:48.789Z,100582.52
2022-09-10T07:43:19.077Z,100585.36
2022-09-10T07:45:47.605Z,100589.14
2022-09-10T07:48:16.232Z,100591.69
2022-09-10T07:50:45.839Z,100590.20
2022-09-10T07:53:18.273Z,100596.34
2022-09-10T07:55:47.661Z,100597.51
2022-09-10T07:58:16.658Z,100597.64
2022-09-10T08:00:47.560Z,100595.73
2022-09-10T08:03:18.586Z,100595.60
2022-09-10T08:05:48.948Z,100595.77
2022-09-10T08:08:17.539Z,100599.59
2022-09-10T08:10:47.093Z,100601.96
2022-09-10T08:13:17.210Z,100605.02
2022-09-10T08:15:45.769Z,100606.59
2022-09-10T08:18:15.167Z,100605.25
2022-09-10T08:20:43.881Z,100606.31
2022-09-10T08:23:12.751Z,100609.15
2022-09-10T08:25:51.727Z,100610.44
2022-09-10T08:28:25.223Z,100609.74
2022-09-10T08:31:02.598Z,100608.63
2022-09-10T08:33:37.054Z,100610.36
2022-09-10T08:36:09.026Z,100608.30
2022-09-10T08:38:42.833Z,100607.94
2022-09-10T08:41:25.734Z,100609.67
2022-09-10T08:44:10.745Z,100607.78
2022-09-10T08:46:52.667Z,100610.70
2022-09-10T08:49:44.027Z,100608.95
2022-09-10T08:52:16.185Z,100611.30
2022-09-10T08:54:58.449Z,100610.17
2022-09-10T08:57:32.108Z,100609.95
2022-09-10T09:00:02.635Z,100609.61
2022-09-10T09:02:49.353Z,100608.52
2022-09-10T09:05:23.751Z,100605.85
2022-09-10T09:07:58.887Z,100610.09
2022-09-10T09:11:11.221Z,100611.34
2022-09-10T09:14:01.093Z,100609.30
2022-09-10T09:16:54.833Z,100607.86
2022-09-10T09:20:11.667Z,100608.77
2022-09-10T09:22:54.074Z,100607.15
2022-09-10T09:25:33.069Z,100605.36
2022-09-10T09:28:12.088Z,100608.61
2022-09-10T09:30:49.827Z,100610.20
2022-09-10T09:33:23.522Z,100610.30
2022-09-10T09:36:01.803Z,100611.86
2022-09-10T09:38:43.355Z,100615.24
2022-09-10T09:41:26.435Z,100617.59
2022-09-10T09:44:03.678Z,100616.94
2022-09-10T09:46:34.758Z,100616.67
2022-09-10T09:49:07.434Z,100616.55
2022-09-10T09:51:36.845Z,100613.22
2022-09-10T09:55:12.624Z,100613.69
2022-09-10T09:57:29.497Z,100612.48
2022-09-10T09:59:58.205Z,100616.90
2022-09-10T10:02:29.978Z,100615.89
2022-09-10T10:05:07.443Z,100613.15
2022-09-10T10:07:39.297Z,100616.70
2022-09-10T10:10:22.055Z,100616.90
2022-09-10T10:12:53.357Z,100616.26
2022-09-10T10:15:42.234Z,100616.08
2022-09-10T10:18:22.907Z,100617.39
2022-09-10T10:21:15.187Z,100616.58
2022-09-10T10:23:44.684Z,100613.58
2022-09-10T10:26:15.835Z,100612.30
2022-09-10T10:29:06.777Z,100610.84
2022-09-10T10:31:44.645Z,100615.44
2022-09-10T10:34:15.907Z,100616.10
2022-09-10T10:37:06.438Z,100615.88
2022-09-10T10:39:40.789Z,100615.02
2022-09-10T10:42:15.886Z,100615.40
2022-09-10T10:45:12.689Z,100614.52
2022-09-10T10:48:10.415Z,100610.55
2022-09-10T10:51:19.884Z,100614.36
2022-09-10T10:54:13.555Z,100615.40
2022-09-10T10:57:00.332Z,100616.45
2022-09-10T10:59:37.358Z,100616.58
2022-09-10T11:02:40.781Z,100616.27
2022-09-10T11:05:37.878Z,100611.81
2022-09-10T11:08:29.279Z,100609.95
2022-09-10T11:11:13.648Z,100611.35
2022-09-10T11:13:59.883Z,100611.19
2022-09-10T11:16:58.536Z,100607.29
2022-09-10T11:19:37.283Z,100607.40
2022-09-10T11:22:19.956Z,100605.23
2022-09-10T11:24:58.796Z,100601.64
2022-09-10T11:27:37.896Z,100599.37
2022-09-10T11:30:12.569Z,100597.89
2022-09-10T11:32:43.067Z,100597.70
2022-09-10T11:35:19.845Z,100596.44
2022-09-10T11:38:14.775Z,100595.08
2022-09-10T11:41:22.405Z,100597.70
2022-09-10T11:44:11.028Z,100589.00
2022-09-10T11:46:42.035Z,100585.48
2022-09-10T11:49:26.480Z,100582.02
2022-09-10T11:51:57.178Z,100580.09
2022-09-10T11:54:34.948Z,100580.80
2022-09-10T11:57:15.396Z,100579.09
2022-09-10T12:00:16.374Z,100578.29
2022-09-10T12:03:09.728Z,100570.61
2022-09-10T12:05:40.792Z,100563.27
2022-09-10T12:08:25.012Z,100559.04
2022-09-10T12:11:15.286Z,100557.63
2022-09-10T12:13:46.434Z,100557.11
2022-09-10T12:16:49.892Z,100550.70
2022-09-10T12:19:26.359Z,100547.57
2022-09-10T12:22:21.363Z,100549.20
2022-09-10T12:25:02.358Z,100547.05
2022-09-10T12:27:46.319Z,100547.08
2022-09-10T12:30:31.117Z,100547.08
2022-09-10T12:33:13.768Z,100544.00
2022-09-10T12:35:49.070Z,100541.41
2022-09-10T12:38:48.288Z,100538.02
2022-09-10T12:41:21.350Z,100536.67
2022-09-10T12:43:49.977Z,100536.39
2022-09-10T12:46:20.335Z,100532.09
2022-09-10T12:49:06.739Z,100530.87
2022-09-10T12:51:47.121Z,100534.60
2022-09-10T12:55:02.722Z,100526.77
2022-09-10T12:57:53.267Z,100530.01
2022-09-10T13:00:28.211Z,100529.16
2022-09-10T13:03:02.547Z,100526.13
2022-09-10T13:05:51.791Z,100522.45
2022-09-10T13:08:26.450Z,100524.28
2022-09-10T13:10:58.604Z,100520.50
2022-09-10T13:13:43.963Z,100517.58
2022-09-10T13:16:20.983Z,100518.41
2022-09-10T13:18:56.783Z,100516.86
2022-09-10T13:21:25.719Z,100514.67
2022-09-10T13:23:55.458Z,100517.20
2022-09-10T13:26:37.759Z,100511.70
2022-09-10T13:29:28.306Z,100512.87
2022-09-10T13:32:14.986Z,100513.24
2022-09-10T13:34:49.216Z,100511.13
2022-09-10T13:37:56.480Z,100509.55
2022-09-10T13:40:43.664Z,100506.17
2022-09-10T13:43:50.167Z,100504.75
2022-09-10T13:46:42.001Z,100501.92
2022-09-10T13:49:30.102Z,100499.71
2022-09-10T13:52:02.546Z,100496.96
2022-09-10T13:54:35.590Z,100497.73
2022-09-10T13:57:27.580Z,100495.09
2022-09-10T14:00:10.683Z,100499.55
2022-09-10T14:02:53.225Z,100498.15
2022-09-10T14:05:43.779Z,100494.72
2022-09-10T14:08:28.064Z,100493.90
2022-09-10T14:11:01.125Z,100495.04
2022-09-10T14:13:52.239Z,100491.68
2022-09-10T14:16:34.459Z,100491.55
2022-09-10T14:19:07.736Z,100491.28
2022-09-10T14:21:36.421Z,100488.79
2022-09-10T14:24:05.106Z,100487.94
2022-09-10T14:26:33.984Z,100481.16
2022-09-10T14:29:25.207Z,100483.27
2022-09-10T14:31:54.768Z,100477.73
2022-09-10T14:34:32.449Z,100477.22
2022-09-10T14:37:02.476Z,100474.98
2022-09-10T14:39:31.380Z,100471.92
2022-09-10T14:42:35.225Z,100468.49
2022-09-10T14:45:03.927Z,100467.41
2022-09-10T14:47:35.149Z,100469.41
2022-09-10T14:50:31.441Z,100470.22
2022-09-10T14:53:00.609Z,100469.33
2022-09-10T14:55:32.155Z,100467.85
2022-09-10T14:58:00.697Z,100468.27
2022-09-10T15:00:30.655Z,100468.30
2022-09-10T15:02:59.098Z,100461.20
2022-09-10T15:05:28.141Z,100464.17
2022-09-10T15:07:56.662Z,100464.53
2022-09-10T15:10:25.517Z,100465.35
2022-09-10T15:12:55.887Z,100465.89
2022-09-10T15:15:25.477Z,100468.52
2022-09-10T15:17:54.008Z,100469.33
2022-09-10T15:20:27.636Z,100470.74
2022-09-10T15:22:56.614Z,100473.89
2022-09-10T15:25:24.903Z,100472.77
2022-09-10T15:27:53.233Z,100470.77
2022-09-10T15:30:23.412Z,100468.86
2022-09-10T15:32:54.695Z,100467.16
2022-09-10T15:35:24.776Z,100468.93
2022-09-10T15:37:53.134Z,100466.93
2022-09-10T15:40:21.862Z,100469.09
2022-09-10T15:42:52.732Z,100471.48
2022-09-10T15:45:21.277Z,100471.46
2022-09-10T15:47:51.087Z,100470.81
2022-09-10T15:50:19.647Z,100467.73
2022-09-10T15:52:48.051Z,100474.05
2022-09-10T15:55:19.614Z,100478.92
2022-09-10T15:57:52.413Z,100482.31
2022-09-10T16:00:21.074Z,100479.39
2022-09-10T16:02:52.276Z,100482.80
2022-09-10T16:05:22.034Z,100486.85
2022-09-10T16:07:50.449Z,100492.63
2022-09-10T16:10:18.968Z,100497.03
2022-09-10T16:12:47.386Z,100495.14
2022-09-10T16:15:15.707Z,100502.83
2022-09-10T16:17:44.213Z,100505.41
2022-09-10T16:20:12.613Z,100508.53
2022-09-10T16:22:41.057Z,100506.25
2022-09-10T16:25:10.448Z,100504.09
2022-09-10T16:27:43.042Z,100501.49
2022-09-10T16:30:14.050Z,100498.14
2022-09-10T16:32:42.405Z,100500.42
2022-09-10T16:35:10.674Z,100504.84
2022-09-10T16:37:40.965Z,100504.15
2022-09-10T16:40:09.668Z,100511.56
2022-09-10T16:42:38.341Z,100513.07
2022-09-10T16:45:08.098Z,100511.08
2022-09-10T16:47:38.447Z,100504.30
2022-09-10T16:50:07.238Z,100497.02
2022-09-10T16:52:36.238Z,100491.02
2022-09-10T16:55:07.255Z,100487.58
2022-09-10T16:57:35.893Z,100482.55
2022-09-10T17:00:07.453Z,100483.11
2022-09-10T17:02:35.911Z,100485.11
2022-09-10T17:05:04.928Z,100490.13
2022-09-10T17:07:33.571Z,100492.77
2022-09-10T17:10:01.976Z,100499.02
2022-09-10T17:12:30.477Z,100500.59
2022-09-10T17:14:59.772Z,100494.61
2022-09-10T17:17:28.417Z,100492.04
2022-09-10T17:19:56.859Z,100488.88
2022-09-10T17:22:25.345Z,100489.48
2022-09-10T17:24:54.378Z,100491.85
2022-09-10T17:27:25.579Z,100496.12
2022-09-10T17:29:54.539Z,100497.58
2022-09-10T17:32:22.879Z,100498.05
2022-09-10T17:34:51.977Z,100502.58
2022-09-10T17:37:20.564Z,100507.55
2022-09-10T17:39:49.063Z,100506.17
2022-09-10T17:42:18.380Z,100508.58
2022-09-10T17:44:47.645Z,100508.16
2022-09-10T17:47:16.063Z,100511.73
2022-09-10T17:49:44.561Z,100514.98
2022-09-10T17:52:14.909Z,100518.94
2022-09-10T17:58:15.207Z,100527.42
2022-09-10T18:00:49.690Z,100527.23
2022-09-10T18:03:18.208Z,100525.84
2022-09-10T18:05:47.130Z,100529.16
2022-09-10T18:08:15.603Z,100530.96
2022-09-10T18:10:44.050Z,100530.98
2022-09-10T18:13:13.559Z,100536.42
2022-09-10T18:15:42.586Z,100539.38
2022-09-10T18:18:11.006Z,100537.45
2022-09-10T18:20:39.321Z,100539.11
2022-09-10T18:23:07.670Z,100540.20
2022-09-10T18:25:36.010Z,100536.43
2022-09-10T18:28:04.389Z,100532.09
2022-09-10T18:30:33.073Z,100529.93
2022-09-10T18:33:01.428Z,100527.66
2022-09-10T18:35:30.570Z,100524.77
2022-09-10T18:37:59.527Z,100519.75
2022-09-10T18:40:28.097Z,100515.86
2022-09-10T18:42:56.732Z,100512.58
2022-09-10T18:45:25.280Z,100515.42
2022-09-10T18:47:54.303Z,100518.41
2022-09-10T18:50:26.880Z,100519.27
2022-09-10T18:52:55.410Z,100519.54
2022-09-10T18:55:23.807Z,100518.90
2022-09-10T18:57:52.269Z,100527.23
2022-09-10T19:00:20.658Z,100529.25
2022-09-10T19:02:49.718Z,100530.27
2022-09-10T19:05:19.354Z,100532.60
2022-09-10T19:07:48.848Z,100535.45
2022-09-10T19:10:17.313Z,100540.88
2022-09-10T19:12:45.697Z,100540.83
2022-09-10T19:15:14.079Z,100536.81
2022-09-10T19:17:42.749Z,100533.65
2022-09-10T19:20:11.100Z,100531.45
2022-09-10T19:22:39.421Z,100530.08
2022-09-10T19:25:09.711Z,100526.49
2022-09-10T19:27:38.668Z,100521.60
2022-09-10T19:30:08.314Z,100526.42
2022-09-10T19:32:36.843Z,100528.60
2022-09-10T19:35:06.031Z,100530.38
2022-09-10T19:37:35.412Z,100534.18
2022-09-10T19:40:04.136Z,100534.22
2022-09-10T19:42:32.597Z,100533.35
2022-09-10T19:45:01.034Z,100528.64
2022-09-10T19:47:29.497Z,100529.81
2022-09-10T19:49:59.428Z,100532.35
2022-09-10T19:52:27.857Z,100530.06
2022-09-10T19:54:57.297Z,100530.95
2022-09-10T19:57:25.843Z,100531.75
2022-09-10T19:59:54.805Z,100531.44
2022-09-10T20:02:23.176Z,100530.41
2022-09-10T20:04:52.219Z,100531.20
2022-09-10T20:07:21.943Z,100532.30
2022-09-10T20:09:50.426Z,100529.80
2022-09-10T20:12:18.998Z,100523.31
2022-09-10T20:14:48.065Z,100521.85
2022-09-10T20:17:17.461Z,100518.98
2022-09-10T20:19:45.930Z,100517.57
2022-09-10T20:22:14.438Z,100513.64
2022-09-10T20:24:43.017Z,100512.94
2022-09-10T20:27:12.069Z,100518.87
2022-09-10T20:29:41.839Z,100520.55
2022-09-10T20:32:10.314Z,100518.52
2022-09-10T20:34:38.814Z,100515.88
2022-09-10T20:37:07.277Z,100520.73
2022-09-10T20:39:36.640Z,100516.45
2022-09-10T20:42:05.426Z,100519.95
2022-09-10T20:44:33.953Z,100521.64
2022-09-10T20:47:03.983Z,100522.64
2022-09-10T20:49:32.461Z,100523.52
2022-09-10T20:52:01.276Z,100520.02
2022-09-10T20:54:29.758Z,100524.55
2022-09-10T20:56:58.159Z,100523.35
2022-09-10T20:59:27.862Z,100522.08
2022-09-10T21:01:57.203Z,100518.27
2022-09-10T21:04:26.781Z,100523.89
2022-09-10T21:06:55.624Z,100522.73
2022-09-10T21:09:25.287Z,100518.80
2022-09-10T21:11:53.736Z,100517.63
2022-09-10T21:14:22.255Z,100516.55
2022-09-10T21:16:51.086Z,100513.77
2022-09-10T21:19:19.519Z,100513.23
2022-09-10T21:21:49.214Z,100511.61
2022-09-10T21:24:22.963Z,100512.73
2022-09-10T21:26:53.957Z,100512.13
2022-09-10T21:29:23.384Z,100513.48
2022-09-10T21:31:54.995Z,100514.43
2022-09-10T21:34:23.934Z,100509.23
2022-09-10T21:36:53.012Z,100509.86
2022-09-10T21:39:21.452Z,100508.01
2022-09-10T21:41:50.925Z,100505.59
2022-09-10T21:44:23.377Z,100506.67
2022-09-10T21:46:53.100Z,100507.73
2022-09-10T21:49:22.022Z,100509.98
2022-09-10T21:51:50.962Z,100511.86
2022-09-10T21:54:22.178Z,100520.26
2022-09-10T21:56:52.472Z,100523.70
2022-09-10T21:59:21.783Z,100517.73
2022-09-10T22:01:50.344Z,100519.80
2022-09-10T22:04:23.289Z,100517.91
2022-09-10T22:06:54.201Z,100520.48
2022-09-10T22:09:24.683Z,100520.06
2022-09-10T22:11:54.609Z,100526.19
2022-09-10T22:14:24.979Z,100526.32
2022-09-10T22:16:55.199Z,100526.59
2022-09-10T22:19:26.083Z,100526.60
2022-09-10T22:21:57.195Z,100520.48
2022-09-10T22:24:26.507Z,100517.33
2022-09-10T22:26:55.414Z,100513.33
2022-09-10T22:29:24.635Z,100507.69
2022-09-10T22:31:53.521Z,100515.27
2022-09-10T22:34:22.901Z,100517.66
2022-09-10T22:36:51.365Z,100516.98
2022-09-10T22:39:22.016Z,100516.30
2022-09-10T22:41:52.993Z,100509.65
2022-09-10T22:44:23.470Z,100510.60
2022-09-10T22:46:51.993Z,100509.28
2022-09-10T22:49:22.184Z,100508.40
2022-09-10T22:51:50.643Z,100507.30
2022-09-10T22:54:18.984Z,100505.17
2022-09-10T22:56:47.767Z,100504.01
2022-09-10T22:59:16.384Z,100502.44
2022-09-10T23:01:48.166Z,100501.56
2022-09-10T23:04:16.772Z,100499.84
2022-09-10T23:06:45.531Z,100497.28
2022-09-10T23:09:16.766Z,100495.23
2022-09-10T23:11:46.736Z,100494.77
2022-09-10T23:14:19.543Z,100495.30
2022-09-10T23:16:51.355Z,100497.58
2022-09-10T23:19:24.425Z,100500.81
2022-09-10T23:21:54.878Z,100501.31
2022-09-10T23:24:26.681Z,100497.39
2022-09-10T23:26:55.217Z,100498.19
2022-09-10T23:29:24.257Z,100500.67
2022-09-10T23:31:54.399Z,100499.86
2022-09-10T23:34:23.336Z,100498.42
2022-09-10T23:36:53.244Z,100494.73
2022-09-10T23:39:24.218Z,100493.59
2022-09-10T23:41:57.198Z,100487.64
2022-09-10T23:44:26.607Z,100485.58
2022-09-10T23:46:56.124Z,100484.08
2022-09-10T23:49:24.624Z,100485.41
2022-09-10T23:51:53.139Z,100488.58
2022-09-10T23:54:21.651Z,100487.91
2022-09-10T23:56:50.421Z,100488.83
2022-09-10T23:59:19.874Z,100487.15
